Time;durP1;ratioP1;P1;durP2;ratioP2;P2;SDS_P1;SDS_P2;PMS_P1;PMS_P2;Temp;Humidity;BMP_temperature;BMP_pressure;BME280_temperature;BME280_humidity;BME280_pressure;Samples;Min_cycle;Max_cycle;Signal;HPM_P1;HPM_P2
2021/04/18 00:01:40;;;;;;;21.80;11.30;;;28.60;90.30;;;;;;5085123;28;20024;-52
2021/04/18 00:04:07;;;;;;;18.00;8.45;;;28.60;90.20;;;;;;5085579;28;20028;-52
2021/04/18 00:06:42;;;;;;;15.68;6.70;;;28.60;90.20;;;;;;5085040;28;20039;-51
2021/04/18 00:09:11;;;;;;;15.15;7.07;;;28.60;90.20;;;;;;5067239;28;20052;-44
2021/04/18 00:11:41;;;;;;;16.40;7.55;;;28.60;90.20;;;;;;5084660;28;20023;-44
2021/04/18 00:14:09;;;;;;;12.70;6.68;;;28.60;90.20;;;;;;5085011;28;20037;-46
2021/04/18 00:16:36;;;;;;;19.30;7.10;;;28.60;90.40;;;;;;5084776;28;20021;-53
2021/04/18 00:19:04;;;;;;;19.02;7.50;;;28.60;90.30;;;;;;5084889;28;20046;-45
2021/04/18 00:21:32;;;;;;;16.52;7.25;;;28.60;90.40;;;;;;5084397;28;20052;-50
2021/04/18 00:23:59;;;;;;;18.88;8.20;;;28.60;90.40;;;;;;5084789;28;20028;-47
2021/04/18 00:26:26;;;;;;;17.70;7.95;;;28.60;90.20;;;;;;5084682;28;20036;-51
2021/04/18 00:28:53;;;;;;;16.73;8.80;;;28.50;90.10;;;;;;5084700;28;20035;-45
2021/04/18 00:31:20;;;;;;;21.65;11.73;;;28.60;90.10;;;;;;5084648;28;20362;-48
2021/04/18 00:33:46;;;;;;;21.88;11.65;;;28.50;90.10;;;;;;5084902;28;20036;-48
2021/04/18 00:36:13;;;;;;;20.33;10.23;;;28.50;90.00;;;;;;5084832;28;20028;-51
2021/04/18 00:38:40;;;;;;;17.38;9.98;;;28.50;89.90;;;;;;5084571;28;20332;-50
2021/04/18 00:41:09;;;;;;;15.82;8.07;;;28.50;90.10;;;;;;5084316;28;20270;-44
2021/04/18 00:43:43;;;;;;;12.27;6.75;;;28.50;90.10;;;;;;5083921;28;20149;-49
2021/04/18 00:46:11;;;;;;;16.90;8.18;;;28.50;90.20;;;;;;5084326;28;20040;-44
2021/04/18 00:48:45;;;;;;;16.58;7.35;;;28.40;90.20;;;;;;5084395;28;20029;-47
2021/04/18 00:51:16;;;;;;;16.48;6.93;;;28.50;90.20;;;;;;5084450;28;20016;-49
2021/04/18 00:53:45;;;;;;;17.00;5.95;;;28.50;90.30;;;;;;5066773;28;20029;-50
2021/04/18 00:56:13;;;;;;;14.82;5.40;;;28.40;90.30;;;;;;5084227;28;20020;-50
2021/04/18 00:58:40;;;;;;;15.93;5.45;;;28.40;90.20;;;;;;5084379;28;20126;-48
2021/04/18 01:01:08;;;;;;;13.30;5.63;;;28.40;90.10;;;;;;5083947;28;20020;-49
2021/04/18 01:03:34;;;;;;;16.20;5.47;;;28.40;90.10;;;;;;5084077;28;20032;-45
2021/04/18 01:06:01;;;;;;;16.55;5.72;;;28.40;90.10;;;;;;5084022;28;20092;-46
2021/04/18 01:08:28;;;;;;;17.63;5.65;;;28.40;90.10;;;;;;5084206;28;20028;-48
2021/04/18 01:10:55;;;;;;;29.90;6.60;;;28.40;90.10;;;;;;5066191;28;20012;-45
2021/04/18 01:13:22;;;;;;;21.15;6.55;;;28.40;90.00;;;;;;5084115;28;20102;-46
2021/04/18 01:15:48;;;;;;;26.65;5.28;;;28.40;90.00;;;;;;5084169;28;20316;-46
2021/04/18 01:18:15;;;;;;;21.85;5.68;;;28.40;90.00;;;;;;5084043;28;20044;-47
2021/04/18 01:20:41;;;;;;;16.60;5.25;;;28.40;90.00;;;;;;5083908;28;20040;-50
2021/04/18 01:23:08;;;;;;;16.98;5.05;;;28.30;90.00;;;;;;5083947;28;20032;-45
2021/04/18 01:25:40;;;;;;;12.88;5.30;;;28.30;90.00;;;;;;5083669;28;20205;-49
2021/04/18 01:28:06;;;;;;;;;;;28.30;90.00;;;;;;5084434;28;20032;-48
2021/04/18 01:30:33;;;;;;;20.02;5.57;;;28.30;89.90;;;;;;5083928;28;19908;-57
2021/04/18 01:33:03;;;;;;;17.10;5.90;;;28.30;90.00;;;;;;5083831;28;20029;-47
2021/04/18 01:35:32;;;;;;;20.73;8.30;;;28.30;90.00;;;;;;5084169;28;20025;-49
2021/04/18 01:37:58;;;;;;;16.15;6.82;;;28.30;90.10;;;;;;5083845;28;20021;-45
2021/04/18 01:40:26;;;;;;;15.48;6.28;;;28.30;90.10;;;;;;5083467;28;20012;-48
2021/04/18 01:42:53;;;;;;;11.38;5.35;;;28.20;90.20;;;;;;5083341;28;20032;-44
2021/04/18 01:45:21;;;;;;;13.45;5.25;;;28.20;90.20;;;;;;5083997;28;20020;-52
2021/04/18 01:47:48;;;;;;;13.77;5.43;;;28.20;90.10;;;;;;5083721;28;20019;-46
2021/04/18 01:50:17;;;;;;;16.58;4.55;;;28.20;90.20;;;;;;5083914;28;20017;-51
2021/04/18 01:52:46;;;;;;;13.50;4.75;;;28.20;90.20;;;;;;5083376;28;20035;-49
2021/04/18 01:55:16;;;;;;;17.00;4.90;;;28.20;90.30;;;;;;5065938;28;20471;-52
2021/04/18 01:57:43;;;;;;;17.08;5.78;;;28.20;90.40;;;;;;5064820;28;20052;-51
2021/04/18 02:00:12;;;;;;;19.13;5.53;;;28.10;90.40;;;;;;5083477;28;20124;-48
2021/04/18 02:02:40;;;;;;;9.93;5.60;;;28.10;90.40;;;;;;5065424;28;20123;-53
2021/04/18 02:05:07;;;;;;;12.45;5.53;;;28.10;90.50;;;;;;5083385;28;20028;-50
2021/04/18 02:07:35;;;;;;;13.68;5.85;;;28.10;90.60;;;;;;5083677;28;20017;-50
2021/04/18 02:10:03;;;;;;;14.18;5.93;;;28.10;90.60;;;;;;5065732;28;20027;-45
2021/04/18 02:12:30;;;;;;;14.65;5.90;;;28.10;90.60;;;;;;5064431;28;20025;-52
2021/04/18 02:15:00;;;;;;;14.25;6.15;;;28.10;90.60;;;;;;5069276;28;20078;-54
2021/04/18 02:17:28;;;;;;;13.90;5.88;;;28.10;90.60;;;;;;5083375;28;20051;-48
2021/04/18 02:19:55;;;;;;;12.27;5.50;;;28.10;90.70;;;;;;5069015;28;20060;-46
2021/04/18 02:22:24;;;;;;;13.68;5.85;;;28.10;90.70;;;;;;5069288;28;20059;-46
2021/04/18 02:24:54;;;;;;;18.65;5.63;;;28.00;90.80;;;;;;5069434;28;20020;-49
2021/04/18 02:27:26;;;;;;;;;;;28.00;90.80;;;;;;5087417;28;20043;-49
2021/04/18 02:29:55;;;;;;;16.67;5.75;;;28.00;91.10;;;;;;5087283;28;19923;-52
2021/04/18 02:32:22;;;;;;;16.33;6.57;;;27.90;90.80;;;;;;5086864;28;20012;-48
2021/04/18 02:34:50;;;;;;;15.82;5.65;;;28.00;90.80;;;;;;5069104;28;20025;-52
2021/04/18 02:37:17;;;;;;;16.20;6.57;;;27.90;90.80;;;;;;5068850;28;20198;-51
2021/04/18 02:39:44;;;;;;;24.52;7.40;;;27.90;90.80;;;;;;5087130;28;20018;-49
2021/04/18 02:42:11;;;;;;;16.25;6.78;;;27.90;90.90;;;;;;5086738;28;20012;-44
2021/04/18 02:44:38;;;;;;;21.30;6.30;;;27.90;90.90;;;;;;5069015;28;20044;-47
2021/04/18 02:47:05;;;;;;;18.02;5.88;;;27.90;90.90;;;;;;5068785;28;20035;-47
2021/04/18 02:49:32;;;;;;;13.07;5.75;;;27.90;90.90;;;;;;5087094;28;20188;-51
2021/04/18 02:51:59;;;;;;;17.17;5.80;;;27.90;90.90;;;;;;5068638;28;20257;-47
2021/04/18 02:54:25;;;;;;;14.68;6.22;;;27.90;90.90;;;;;;5086520;28;20260;-44
2021/04/18 02:56:52;;;;;;;13.75;6.40;;;27.90;90.90;;;;;;5068938;28;20057;-50
2021/04/18 02:59:19;;;;;;;17.35;6.40;;;27.90;90.90;;;;;;5086940;28;20113;-49
2021/04/18 03:01:46;;;;;;;13.75;6.55;;;27.80;90.80;;;;;;5068960;28;20232;-50
2021/04/18 03:04:13;;;;;;;19.00;7.88;;;27.80;90.80;;;;;;5086893;28;20035;-49
2021/04/18 03:06:40;;;;;;;19.42;7.97;;;27.80;90.70;;;;;;5086325;28;20196;-50
2021/04/18 03:09:07;;;;;;;18.13;7.70;;;27.80;90.60;;;;;;5086911;28;20021;-46
2021/04/18 03:11:34;;;;;;;20.30;8.20;;;27.80;90.70;;;;;;5069075;28;20025;-47
2021/04/18 03:14:01;;;;;;;21.65;8.25;;;27.80;90.60;;;;;;5086951;28;20060;-47
2021/04/18 03:16:28;;;;;;;19.17;6.80;;;27.80;90.60;;;;;;5086469;28;20025;-46
2021/04/18 03:18:54;;;;;;;18.80;7.50;;;27.70;90.50;;;;;;5086550;28;20224;-53
2021/04/18 03:21:21;;;;;;;16.65;6.68;;;27.80;90.50;;;;;;5085937;28;20049;-51
2021/04/18 03:23:48;;;;;;;19.98;9.32;;;27.70;90.50;;;;;;5085858;28;20035;-55
2021/04/18 03:26:14;;;;;;;23.02;8.35;;;27.70;90.50;;;;;;5086040;28;20013;-49
2021/04/18 03:28:41;;;;;;;19.42;8.18;;;27.70;90.30;;;;;;5086332;28;20036;-48
2021/04/18 03:31:08;;;;;;;19.52;7.28;;;27.70;90.30;;;;;;5085946;28;20012;-46
2021/04/18 03:33:34;;;;;;;15.23;7.03;;;27.70;90.30;;;;;;5086166;28;20032;-47
2021/04/18 03:36:01;;;;;;;19.10;7.50;;;27.70;90.20;;;;;;5067885;28;20030;-44
2021/04/18 03:38:28;;;;;;;15.70;7.30;;;27.70;90.20;;;;;;5085880;28;20233;-50
2021/04/18 03:40:54;;;;;;;13.65;6.80;;;27.70;90.10;;;;;;5085658;28;20020;-45
2021/04/18 03:43:21;;;;;;;18.02;5.80;;;27.70;90.10;;;;;;5085486;28;20186;-53
2021/04/18 03:45:48;;;;;;;19.15;5.38;;;27.70;90.00;;;;;;5085839;28;20021;-54
2021/04/18 03:48:14;;;;;;;20.45;5.80;;;27.70;90.00;;;;;;5086003;28;20067;-49
2021/04/18 03:50:41;;;;;;;17.08;5.25;;;27.70;90.00;;;;;;5085759;28;20016;-54
2021/04/18 03:53:08;;;;;;;13.73;5.32;;;27.70;90.00;;;;;;5085651;28;20032;-52
2021/04/18 03:55:34;;;;;;;20.90;5.25;;;27.70;90.00;;;;;;5067777;28;20020;-54
2021/04/18 03:58:01;;;;;;;14.43;5.00;;;27.60;90.00;;;;;;5085472;28;20300;-50
2021/04/18 04:00:28;;;;;;;14.93;5.32;;;27.60;90.10;;;;;;5085646;28;20043;-46
2021/04/18 04:02:54;;;;;;;16.23;5.13;;;27.60;90.10;;;;;;5085408;28;20186;-49
2021/04/18 04:05:21;;;;;;;15.82;5.38;;;27.60;90.10;;;;;;5085170;28;20025;-47
2021/04/18 04:07:48;;;;;;;20.30;5.53;;;27.60;90.20;;;;;;5084961;28;20039;-47
2021/04/18 04:10:15;;;;;;;19.75;5.32;;;27.60;90.20;;;;;;5085178;28;20031;-46
2021/04/18 04:12:41;;;;;;;17.02;5.25;;;27.60;90.10;;;;;;5084940;28;20020;-54
2021/04/18 04:15:08;;;;;;;19.17;5.43;;;27.60;90.10;;;;;;5085007;28;20205;-49
2021/04/18 04:17:36;;;;;;;19.63;5.40;;;27.60;90.30;;;;;;5085175;28;20012;-48
2021/04/18 04:20:04;;;;;;;17.67;5.32;;;27.60;90.00;;;;;;5085137;28;20051;-52
2021/04/18 04:22:30;;;;;;;20.75;5.22;;;27.60;90.00;;;;;;5066753;28;20066;-49
2021/04/18 04:24:58;;;;;;;18.98;5.60;;;27.50;90.10;;;;;;5067425;28;20028;-48
2021/04/18 04:27:25;;;;;;;22.20;5.93;;;27.50;89.90;;;;;;5084783;28;20243;-46
2021/04/18 04:29:52;;;;;;;18.85;5.22;;;27.50;89.90;;;;;;5084328;28;20025;-53
2021/04/18 04:32:19;;;;;;;19.20;5.30;;;27.50;89.80;;;;;;5084612;28;20044;-48
2021/04/18 04:34:45;;;;;;;23.25;5.82;;;27.50;89.60;;;;;;5085118;28;20029;-49
2021/04/18 04:37:12;;;;;;;18.63;5.68;;;27.50;89.20;;;;;;5083933;28;20034;-50
2021/04/18 04:39:39;;;;;;;14.85;5.57;;;27.50;88.60;;;;;;5084424;28;20039;-50
2021/04/18 04:42:06;;;;;;;19.75;6.00;;;27.50;88.00;;;;;;5084575;28;20017;-56
2021/04/18 04:44:33;;;;;;;13.18;5.18;;;27.50;87.80;;;;;;5066536;28;20032;-49
2021/04/18 04:47:00;;;;;;;15.93;5.50;;;27.50;87.50;;;;;;5084485;28;20016;-51
2021/04/18 04:49:27;;;;;;;16.75;5.40;;;27.50;87.10;;;;;;5084996;28;20147;-45
2021/04/18 04:51:53;;;;;;;22.73;5.72;;;27.50;86.80;;;;;;5084215;28;20023;-51
2021/04/18 04:54:20;;;;;;;11.88;5.32;;;27.50;86.80;;;;;;5084758;28;20032;-48
2021/04/18 04:56:47;;;;;;;16.30;5.47;;;27.50;86.00;;;;;;5066826;28;20044;-51
2021/04/18 04:59:13;;;;;;;20.75;5.50;;;27.50;86.00;;;;;;5084417;28;20035;-54
2021/04/18 05:01:40;;;;;;;14.57;4.75;;;27.40;86.10;;;;;;5084735;28;20020;-56
2021/04/18 05:04:07;;;;;;;15.73;5.30;;;27.40;85.90;;;;;;5084784;28;20292;-53
2021/04/18 05:06:33;;;;;;;15.00;5.40;;;27.40;85.80;;;;;;5084519;28;20020;-48
2021/04/18 05:09:00;;;;;;;16.30;5.28;;;27.50;85.90;;;;;;5084860;28;20025;-46
2021/04/18 05:11:27;;;;;;;18.95;5.10;;;27.40;85.90;;;;;;5084813;28;20016;-49
2021/04/18 05:13:53;;;;;;;10.43;5.60;;;27.40;85.90;;;;;;5084971;28;20035;-45
2021/04/18 05:16:20;;;;;;;14.60;5.22;;;27.40;86.20;;;;;;5067479;28;20184;-49
2021/04/18 05:18:47;;;;;;;16.45;5.50;;;27.40;86.40;;;;;;5084706;28;20031;-54
2021/04/18 05:21:14;;;;;;;15.30;6.03;;;27.40;86.50;;;;;;5084010;28;20115;-51
2021/04/18 05:23:40;;;;;;;17.73;5.78;;;27.40;86.60;;;;;;5066377;28;20090;-49
2021/04/18 05:26:07;;;;;;;16.92;5.28;;;27.40;86.60;;;;;;5083883;28;20027;-43
2021/04/18 05:28:34;;;;;;;22.40;5.88;;;27.40;86.60;;;;;;5084120;28;20301;-48
2021/04/18 05:31:01;;;;;;;18.90;5.63;;;27.40;86.70;;;;;;5066684;28;20336;-52
2021/04/18 05:33:28;;;;;;;15.00;5.85;;;27.40;86.50;;;;;;5084599;28;20088;-46
2021/04/18 05:35:55;;;;;;;16.25;5.68;;;27.40;86.70;;;;;;5084307;28;20028;-46
2021/04/18 05:38:22;;;;;;;15.90;6.88;;;27.40;86.60;;;;;;5084545;28;20024;-45
2021/04/18 05:40:48;;;;;;;19.77;6.32;;;27.30;86.60;;;;;;5066815;28;20201;-49
2021/04/18 05:43:15;;;;;;;14.48;5.90;;;27.40;86.60;;;;;;5066542;28;20345;-47
2021/04/18 05:45:42;;;;;;;22.00;7.15;;;27.40;86.80;;;;;;5084476;28;20048;-45
2021/04/18 05:48:09;;;;;;;17.95;7.78;;;27.30;86.90;;;;;;5087046;28;20048;-46
2021/04/18 05:50:36;;;;;;;20.80;7.68;;;27.30;87.10;;;;;;5088715;28;20259;-45
2021/04/18 05:53:02;;;;;;;16.38;6.82;;;27.30;87.40;;;;;;5088412;28;20056;-44
2021/04/18 05:55:29;;;;;;;15.10;6.13;;;27.30;87.60;;;;;;5088364;28;20051;-46
2021/04/18 05:57:56;;;;;;;21.55;7.13;;;27.30;87.40;;;;;;5088269;28;20024;-48
2021/04/18 06:00:23;;;;;;;26.77;7.97;;;27.30;87.30;;;;;;5088339;28;20040;-48
2021/04/18 06:02:49;;;;;;;20.65;7.68;;;27.40;87.60;;;;;;5088021;28;20023;-46
2021/04/18 06:05:17;;;;;;;22.48;7.30;;;27.30;87.40;;;;;;5088569;28;20020;-54
2021/04/18 06:07:43;;;;;;;22.52;6.78;;;27.30;87.60;;;;;;5087879;28;20028;-46
2021/04/18 06:10:11;;;;;;;16.15;6.57;;;27.30;87.70;;;;;;5088167;28;20020;-45
2021/04/18 06:12:37;;;;;;;24.05;6.70;;;27.30;87.50;;;;;;5088286;28;20020;-44
2021/04/18 06:15:05;;;;;;;23.38;6.10;;;27.30;87.60;;;;;;5088406;28;20024;-46
2021/04/18 06:17:32;;;;;;;20.23;6.78;;;27.30;87.70;;;;;;5087941;28;20020;-50
2021/04/18 06:19:59;;;;;;;14.68;5.60;;;27.30;87.80;;;;;;5088278;28;20268;-47
2021/04/18 06:22:26;;;;;;;20.70;6.30;;;27.30;87.80;;;;;;5087593;28;20026;-48
2021/04/18 06:24:53;;;;;;;16.73;6.35;;;27.30;87.90;;;;;;5088270;28;20269;-47
2021/04/18 06:27:19;;;;;;;18.90;6.53;;;27.30;87.70;;;;;;5069882;28;20024;-48
2021/04/18 06:29:46;;;;;;;18.77;6.28;;;27.30;87.60;;;;;;5088238;28;20028;-51
2021/04/18 06:32:12;;;;;;;18.83;5.95;;;27.30;87.50;;;;;;5087238;28;20066;-44
2021/04/18 06:34:39;;;;;;;19.33;6.15;;;27.30;87.50;;;;;;5087651;28;20100;-56
2021/04/18 06:37:06;;;;;;;16.77;5.72;;;27.30;87.50;;;;;;5087607;28;20319;-49
2021/04/18 06:39:33;;;;;;;21.42;5.97;;;27.30;87.50;;;;;;5087868;28;20032;-47
2021/04/18 06:42:03;;;;;;;19.45;5.78;;;27.20;87.30;;;;;;5087486;28;20028;-46
2021/04/18 06:44:31;;;;;;;18.92;6.03;;;27.30;87.40;;;;;;5087237;28;20034;-46
2021/04/18 06:46:59;;;;;;;18.10;6.55;;;27.30;87.50;;;;;;5086747;28;20031;-45
2021/04/18 06:49:27;;;;;;;18.73;6.35;;;27.20;87.30;;;;;;5087874;28;20021;-50
2021/04/18 06:51:55;;;;;;;15.00;5.60;;;27.20;87.30;;;;;;5087091;28;20319;-50
2021/04/18 06:54:22;;;;;;;18.83;6.60;;;27.30;87.40;;;;;;5087827;28;20032;-46
2021/04/18 06:56:49;;;;;;;17.77;6.60;;;27.30;87.40;;;;;;5087369;28;20047;-46
2021/04/18 06:59:16;;;;;;;20.30;7.38;;;27.30;87.30;;;;;;5086857;28;20032;-45
2021/04/18 07:01:42;;;;;;;19.38;7.30;;;27.20;87.20;;;;;;5086888;28;20029;-44
2021/04/18 07:04:14;;;;;;;18.50;7.90;;;27.20;87.20;;;;;;5087428;28;20130;-45
2021/04/18 07:06:44;;;;;;;19.98;6.78;;;27.20;87.20;;;;;;5087041;28;20202;-45
2021/04/18 07:09:13;;;;;;;19.40;6.53;;;27.20;87.10;;;;;;5087565;28;20321;-44
2021/04/18 07:11:54;;;;;;;16.15;5.93;;;27.20;87.10;;;;;;5087227;28;20020;-49
2021/04/18 07:14:25;;;;;;;23.50;7.00;;;27.20;87.20;;;;;;5086513;28;20024;-50
2021/04/18 07:16:54;;;;;;;27.03;10.13;;;27.20;87.50;;;;;;5086308;28;20062;-47
2021/04/18 07:19:25;;;;;;;33.28;10.60;;;27.20;87.90;;;;;;5086436;28;20071;-53
2021/04/18 07:21:54;;;;;;;25.17;7.90;;;27.20;88.80;;;;;;5085918;28;20052;-49
2021/04/18 07:24:22;;;;;;;19.00;6.68;;;27.20;89.40;;;;;;5086181;28;20311;-52
2021/04/18 07:27:01;;;;;;;17.25;6.93;;;27.20;89.60;;;;;;5086665;28;20258;-46
2021/04/18 07:29:29;;;;;;;16.33;6.30;;;27.20;89.70;;;;;;5086975;28;20096;-48
2021/04/18 07:31:58;;;;;;;19.13;7.00;;;27.20;89.80;;;;;;5086250;28;20110;-58
2021/04/18 07:34:37;;;;;;;17.27;6.75;;;27.10;89.80;;;;;;5086561;28;20095;-47
2021/04/18 07:37:11;;;;;;;20.10;6.57;;;27.10;89.80;;;;;;5085616;28;20024;-49
2021/04/18 07:39:57;;;;;;;18.67;5.63;;;27.10;89.40;;;;;;5086238;28;20025;-45
2021/04/18 07:42:26;;;;;;;18.05;5.55;;;27.10;89.60;;;;;;5085422;28;20024;-48
2021/04/18 07:44:58;;;;;;;18.05;5.57;;;27.10;89.30;;;;;;5086653;28;20031;-48
2021/04/18 07:47:26;;;;;;;17.40;6.13;;;27.10;89.00;;;;;;5086194;28;20316;-47
2021/04/18 07:49:54;;;;;;;16.30;5.55;;;27.10;88.80;;;;;;5085989;28;20060;-50
2021/04/18 07:52:24;;;;;;;17.73;5.05;;;27.00;88.70;;;;;;5085760;28;20016;-49
2021/04/18 07:54:52;;;;;;;16.40;5.82;;;27.00;88.70;;;;;;5085220;28;20029;-47
2021/04/18 07:57:20;;;;;;;18.17;5.57;;;27.00;88.90;;;;;;5085337;28;20292;-46
2021/04/18 07:59:48;;;;;;;18.30;6.18;;;27.00;89.20;;;;;;5085568;28;20029;-50
2021/04/18 08:02:20;;;;;;;16.52;5.30;;;27.00;89.00;;;;;;5085413;28;20027;-53
2021/04/18 08:04:50;;;;;;;;;;;27.00;88.90;;;;;;5086537;28;20028;-52
2021/04/18 08:07:17;;;;;;;17.23;5.70;;;27.00;89.00;;;;;;5085869;28;19907;-50
2021/04/18 08:09:43;;;;;;;17.48;5.63;;;27.00;88.90;;;;;;5085502;28;20024;-45
2021/04/18 08:12:13;;;;;;;18.77;5.60;;;26.90;88.80;;;;;;5084524;28;20086;-48
2021/04/18 08:14:42;;;;;;;16.92;5.18;;;26.90;88.70;;;;;;5085518;28;20048;-48
2021/04/18 08:17:14;;;;;;;18.30;5.53;;;26.90;88.60;;;;;;5085017;28;20217;-53
2021/04/18 08:20:01;;;;;;;19.38;5.32;;;26.90;88.60;;;;;;5085798;28;20333;-57
2021/04/18 08:23:05;;;;;;;16.85;5.25;;;26.90;88.50;;;;;;5085137;28;20039;-55
2021/04/18 08:25:34;;;;;;;15.07;5.55;;;26.90;88.40;;;;;;5023513;28;20076;-57
2021/04/18 08:28:09;;;;;;;22.42;5.68;;;26.90;88.30;;;;;;5075315;28;20055;-57
2021/04/18 08:31:09;;;;;;;17.13;5.20;;;26.90;88.20;;;;;;5084803;28;20047;-47
2021/04/18 08:33:42;;;;;;;17.63;5.82;;;26.90;88.20;;;;;;5063900;28;20220;-48
2021/04/18 08:36:13;;;;;;;16.45;5.50;;;26.90;88.40;;;;;;5085043;28;20095;-54
2021/04/18 08:38:41;;;;;;;18.02;5.45;;;26.90;88.60;;;;;;5084630;28;20035;-48
2021/04/18 08:41:16;;;;;;;20.92;5.82;;;26.90;88.80;;;;;;5085182;28;20016;-49
2021/04/18 08:43:47;;;;;;;15.95;5.57;;;26.90;88.50;;;;;;5084690;28;20032;-55
2021/04/18 08:46:20;;;;;;;17.08;5.53;;;26.90;88.40;;;;;;5084410;28;20048;-48
2021/04/18 08:48:47;;;;;;;17.02;5.35;;;26.90;88.30;;;;;;5084755;28;20018;-55
2021/04/18 08:51:13;;;;;;;16.40;5.40;;;26.90;88.00;;;;;;5084471;28;20020;-47
2021/04/18 08:54:00;;;;;;;16.50;6.10;;;26.90;87.80;;;;;;5084813;28;20305;-49
2021/04/18 08:56:53;;;;;;;20.90;5.65;;;26.90;87.50;;;;;;5084754;28;20032;-54
2021/04/18 08:59:21;;;;;;;15.93;5.50;;;27.00;87.60;;;;;;5084891;28;20020;-46
2021/04/18 09:02:06;;;;;;;18.80;6.78;;;27.00;87.60;;;;;;5084504;28;20029;-49
2021/04/18 09:04:41;;;;;;;19.38;6.10;;;26.90;87.80;;;;;;5084753;28;20028;-49
2021/04/18 09:07:12;;;;;;;13.00;5.78;;;27.00;87.80;;;;;;5084832;28;20024;-58
2021/04/18 09:09:39;;;;;;;18.83;5.75;;;26.90;87.60;;;;;;5084512;28;20098;-55
2021/04/18 09:12:07;;;;;;;13.95;5.30;;;26.90;87.50;;;;;;5084171;28;20087;-50
2021/04/18 09:14:41;;;;;;;12.85;5.55;;;26.90;87.50;;;;;;5084482;28;20024;-49
2021/04/18 09:17:16;;;;;;;18.88;5.72;;;26.90;87.30;;;;;;5084108;28;20035;-48
2021/04/18 09:19:46;;;;;;;17.92;5.85;;;26.90;86.80;;;;;;5084569;28;20089;-48
2021/04/18 09:22:23;;;;;;;12.27;5.63;;;26.90;86.90;;;;;;5083917;28;20047;-51
2021/04/18 09:24:57;;;;;;;13.60;4.97;;;26.90;87.10;;;;;;5083646;28;20087;-55
2021/04/18 09:27:38;;;;;;;14.55;5.30;;;27.00;87.20;;;;;;5084134;28;20020;-52
2021/04/18 09:30:07;;;;;;;17.58;5.15;;;26.90;87.10;;;;;;5084018;28;20024;-51
2021/04/18 09:32:34;;;;;;;15.40;5.78;;;26.90;87.00;;;;;;5084459;28;20008;-56
2021/04/18 09:35:01;;;;;;;12.82;5.35;;;26.90;86.80;;;;;;5084262;28;20024;-47
2021/04/18 09:37:36;;;;;;;16.02;5.35;;;26.90;86.80;;;;;;5084357;28;20016;-48
2021/04/18 09:40:08;;;;;;;12.50;5.00;;;26.90;86.70;;;;;;5084632;28;20088;-48
2021/04/18 09:42:38;;;;;;;15.88;4.85;;;26.90;86.70;;;;;;5083895;28;20028;-47
2021/04/18 09:45:14;;;;;;;15.25;5.15;;;26.90;86.70;;;;;;5084682;28;20056;-48
2021/04/18 09:47:52;;;;;;;18.23;5.10;;;26.90;86.50;;;;;;5083332;28;20048;-52
2021/04/18 09:50:20;;;;;;;11.38;4.80;;;26.90;86.40;;;;;;5084063;28;20084;-54
2021/04/18 09:52:47;;;;;;;13.63;5.00;;;27.00;86.40;;;;;;5083795;28;20017;-47
2021/04/18 09:55:23;;;;;;;11.10;4.88;;;26.90;86.30;;;;;;5083655;28;20231;-48
2021/04/18 09:57:54;;;;;;;17.83;4.97;;;26.90;86.00;;;;;;5084073;28;20197;-48
2021/04/18 10:00:41;;;;;;;15.90;4.88;;;26.90;86.00;;;;;;5083423;28;20056;-52
2021/04/18 10:03:09;;;;;;;13.15;4.60;;;26.90;86.00;;;;;;5083357;28;20108;-47
2021/04/18 10:05:38;;;;;;;10.95;4.65;;;26.90;85.80;;;;;;5084058;28;20042;-46
2021/04/18 10:08:23;;;;;;;11.15;4.53;;;26.90;85.90;;;;;;5083878;28;20016;-45
2021/04/18 10:10:56;;;;;;;12.98;4.45;;;26.90;85.70;;;;;;5083414;28;20031;-47
2021/04/18 10:13:56;;;;;;;11.05;4.60;;;26.90;85.70;;;;;;5083667;28;20024;-47
2021/04/18 10:16:38;;;;;;;14.23;4.75;;;26.90;85.40;;;;;;5050835;28;20224;-48
2021/04/18 10:19:22;;;;;;;11.25;4.55;;;26.80;85.50;;;;;;5083659;28;20047;-52
2021/04/18 10:22:08;;;;;;;16.15;4.57;;;26.80;85.60;;;;;;5083249;28;20270;-46
2021/04/18 10:24:48;;;;;;;13.40;4.35;;;26.80;85.30;;;;;;5083394;28;20029;-49
2021/04/18 10:27:33;;;;;;;12.43;4.45;;;26.80;85.50;;;;;;5083249;28;20016;-46
2021/04/18 10:30:06;;;;;;;11.07;4.43;;;26.80;85.20;;;;;;5065793;28;20093;-48
2021/04/18 10:32:33;;;;;;;16.15;5.10;;;26.80;85.30;;;;;;5083430;28;20024;-52
2021/04/18 10:35:00;;;;;;;12.80;4.93;;;26.80;85.20;;;;;;5085731;28;20031;-49
2021/04/18 10:37:28;;;;;;;12.65;5.00;;;26.80;85.30;;;;;;5086730;28;20036;-49
2021/04/18 10:39:55;;;;;;;17.42;4.95;;;26.80;85.50;;;;;;5087765;28;20028;-52
2021/04/18 10:42:23;;;;;;;13.52;4.85;;;26.80;85.40;;;;;;5086854;28;20175;-50
2021/04/18 10:44:50;;;;;;;11.13;4.57;;;26.80;85.40;;;;;;5087306;28;20098;-50
2021/04/18 10:47:18;;;;;;;10.75;4.30;;;26.80;85.40;;;;;;5086938;28;20058;-46
2021/04/18 10:49:46;;;;;;;10.80;4.95;;;26.80;85.40;;;;;;5087119;28;20024;-46
2021/04/18 10:52:13;;;;;;;17.00;4.90;;;26.80;85.30;;;;;;5086458;28;20024;-51
2021/04/18 10:54:40;;;;;;;15.25;4.75;;;26.80;85.40;;;;;;5086865;28;20029;-47
2021/04/18 10:57:07;;;;;;;12.15;4.53;;;26.80;85.50;;;;;;5086654;28;20336;-49
2021/04/18 10:59:34;;;;;;;11.30;4.93;;;26.80;85.30;;;;;;5086718;28;20208;-50
2021/04/18 11:02:00;;;;;;;16.05;5.22;;;26.80;85.30;;;;;;5086396;28;20051;-52
2021/04/18 11:04:27;;;;;;;15.20;5.13;;;26.80;85.30;;;;;;5086555;28;20029;-50
2021/04/18 11:06:53;;;;;;;13.60;4.63;;;26.80;85.30;;;;;;5086390;28;20196;-51
2021/04/18 11:09:20;;;;;;;10.38;4.70;;;26.80;85.20;;;;;;5086340;28;20087;-52
2021/04/18 11:11:47;;;;;;;16.73;5.43;;;26.70;84.90;;;;;;5086555;28;20020;-54
2021/04/18 11:14:13;;;;;;;11.35;4.40;;;26.80;85.00;;;;;;5086547;28;20028;-56
2021/04/18 11:16:40;;;;;;;12.18;4.28;;;26.80;84.80;;;;;;5086140;28;20045;-42
2021/04/18 11:19:06;;;;;;;16.63;5.10;;;26.80;84.80;;;;;;5086291;28;20084;-47
2021/04/18 11:21:33;;;;;;;15.02;5.45;;;26.80;85.00;;;;;;5085741;28;20119;-49
2021/04/18 11:24:00;;;;;;;12.73;4.88;;;26.80;85.00;;;;;;5086290;28;20040;-46
2021/04/18 11:26:27;;;;;;;11.10;4.50;;;26.80;84.80;;;;;;5086050;28;20300;-48
2021/04/18 11:28:56;;;;;;;14.40;4.85;;;26.80;84.70;;;;;;5085755;28;20039;-54
2021/04/18 11:31:23;;;;;;;16.52;5.15;;;26.80;84.80;;;;;;5085839;28;20020;-51
2021/04/18 11:33:50;;;;;;;20.95;5.45;;;26.80;84.80;;;;;;5086024;28;20101;-49
2021/04/18 11:36:18;;;;;;;12.85;5.18;;;26.80;85.00;;;;;;5085978;28;20024;-48
2021/04/18 11:38:46;;;;;;;17.48;5.53;;;26.80;85.10;;;;;;5086035;28;20165;-48
2021/04/18 11:41:13;;;;;;;12.07;5.35;;;26.80;84.90;;;;;;5085433;28;20021;-49
2021/04/18 11:43:39;;;;;;;13.73;5.25;;;26.80;84.70;;;;;;5085546;28;20052;-53
2021/04/18 11:46:07;;;;;;;19.20;5.95;;;26.80;84.80;;;;;;5085391;28;20034;-52
2021/04/18 11:48:37;;;;;;;22.35;10.10;;;26.90;85.00;;;;;;5085665;28;20324;-52
2021/04/18 11:51:04;;;;;;;19.00;8.05;;;26.80;85.50;;;;;;5085503;28;20024;-47
2021/04/18 11:53:30;;;;;;;16.25;6.97;;;26.80;86.00;;;;;;5085638;28;20028;-54
2021/04/18 11:55:57;;;;;;;17.17;5.57;;;26.80;85.80;;;;;;5085608;28;20228;-48
2021/04/18 11:58:24;;;;;;;15.52;6.35;;;26.90;85.60;;;;;;5085428;28;20057;-46
2021/04/18 12:00:51;;;;;;;17.70;6.55;;;26.90;85.80;;;;;;5085141;28;20052;-51
2021/04/18 12:03:17;;;;;;;14.20;6.40;;;26.90;85.80;;;;;;5085271;28;20024;-49
2021/04/18 12:05:45;;;;;;;16.50;5.88;;;26.90;86.00;;;;;;5085281;28;20021;-45
2021/04/18 12:08:15;;;;;;;16.38;5.50;;;26.90;86.40;;;;;;5085161;28;20028;-51
2021/04/18 12:10:42;;;;;;;20.23;6.45;;;26.90;86.40;;;;;;5084820;28;20024;-48
2021/04/18 12:13:09;;;;;;;21.35;6.15;;;27.00;86.70;;;;;;5085269;28;20028;-55
2021/04/18 12:15:36;;;;;;;21.98;6.93;;;26.90;86.70;;;;;;5085158;28;20202;-47
2021/04/18 12:18:03;;;;;;;26.17;7.15;;;27.00;86.70;;;;;;5084827;28;20056;-47
2021/04/18 12:20:30;;;;;;;15.68;6.03;;;27.00;86.80;;;;;;5084802;28;20052;-53
2021/04/18 12:22:57;;;;;;;19.48;7.30;;;27.00;87.00;;;;;;5084868;28;20020;-46
2021/04/18 12:25:23;;;;;;;18.70;7.10;;;27.00;87.10;;;;;;5084732;28;20056;-44
2021/04/18 12:27:50;;;;;;;18.40;7.75;;;27.00;87.50;;;;;;5084799;28;20313;-50
2021/04/18 12:30:17;;;;;;;19.30;6.40;;;27.10;87.90;;;;;;5084869;28;20186;-49
2021/04/18 12:32:46;;;;;;;13.52;6.85;;;27.10;88.40;;;;;;5084641;28;20085;-46
2021/04/18 12:35:14;;;;;;;19.40;6.53;;;27.10;87.80;;;;;;5084628;28;20201;-48
2021/04/18 12:37:41;;;;;;;14.48;7.20;;;27.10;87.90;;;;;;5084402;28;20209;-44
2021/04/18 12:40:10;;;;;;;19.05;8.02;;;27.10;88.00;;;;;;5084273;28;20087;-51
2021/04/18 12:42:37;;;;;;;19.38;7.53;;;27.10;87.80;;;;;;5084483;28;20079;-49
2021/04/18 12:45:05;;;;;;;17.55;6.90;;;27.20;87.80;;;;;;5085127;28;20070;-46
2021/04/18 12:47:31;;;;;;;16.77;7.18;;;27.20;87.40;;;;;;5084255;28;20017;-45